createdAt,value
2022-11-22T00:00:42.306Z,98299.94
2022-11-22T00:03:17.789Z,98303.88
2022-11-22T00:05:47.561Z,98294.22
2022-11-22T00:08:14.610Z,98303.38
2022-11-22T00:10:41.989Z,98305.63
2022-11-22T00:13:09.548Z,98304.38
2022-11-22T00:15:39.451Z,98298.69
2022-11-22T00:18:09.676Z,98300.91
2022-11-22T00:20:37.259Z,98295.94
2022-11-22T00:23:04.698Z,98298.19
2022-11-22T00:25:32.251Z,98292.47
2022-11-22T00:27:59.130Z,98290.72
2022-11-22T00:30:26.376Z,98275.09
2022-11-22T00:32:53.426Z,98274.59
2022-11-22T00:35:20.790Z,98270.13
2022-11-22T00:37:50.051Z,98270.13
2022-11-22T00:40:17.377Z,98270.66
2022-11-22T00:42:44.316Z,98267.41
2022-11-22T00:45:12.085Z,98267.69
2022-11-22T00:47:39.084Z,98264.97
2022-11-22T00:50:06.706Z,98271.13
2022-11-22T00:52:33.653Z,98261.72
2022-11-22T00:55:00.933Z,98274.13
2022-11-22T00:57:28.037Z,98274.63
2022-11-22T00:59:55.313Z,98281.31
2022-11-22T01:02:24.652Z,98277.13
2022-11-22T01:04:51.927Z,98273.13
2022-11-22T01:07:18.991Z,98282.53
2022-11-22T01:09:48.824Z,98268.91
2022-11-22T01:12:16.142Z,98267.63
2022-11-22T01:14:43.464Z,98276.78
2022-11-22T01:17:10.464Z,98263.41
2022-11-22T01:19:40.044Z,98269.09
2022-11-22T01:22:07.084Z,98263.66
2022-11-22T01:24:34.458Z,98265.13
2022-11-22T01:27:03.732Z,98251.50
2022-11-22T01:29:31.454Z,98250.75
2022-11-22T01:31:58.504Z,98251.25
2022-11-22T01:34:30.451Z,98254.22
2022-11-22T01:36:57.412Z,98236.88
2022-11-22T01:39:24.659Z,98231.19
2022-11-22T01:41:51.626Z,98237.13
2022-11-22T01:44:28.478Z,98225.47
2022-11-22T01:47:00.129Z,98228.47
2022-11-22T01:50:05.194Z,98215.31
2022-11-22T01:52:34.350Z,98217.56
2022-11-22T01:55:09.522Z,98215.84
2022-11-22T01:57:39.288Z,98217.06
2022-11-22T02:00:14.793Z,98215.56
2022-11-22T02:02:51.937Z,98221.53
2022-11-22T02:05:22.926Z,98221.78
2022-11-22T02:08:00.473Z,98210.59
2022-11-22T02:10:30.146Z,98209.34
2022-11-22T02:12:59.616Z,98214.34
2022-11-22T02:15:27.111Z,98216.31
2022-11-22T02:17:54.421Z,98216.56
2022-11-22T02:20:23.942Z,98201.66
2022-11-22T02:22:53.693Z,98203.38
2022-11-22T02:25:42.116Z,98195.94
2022-11-22T02:28:11.846Z,98182.31
2022-11-22T02:30:40.413Z,98190.97
2022-11-22T02:33:08.070Z,98179.56
2022-11-22T02:35:35.640Z,98178.31
2022-11-22T02:38:08.616Z,98179.53
2022-11-22T02:40:44.984Z,98168.13
2022-11-22T02:43:13.594Z,98167.38
2022-11-22T02:45:41.029Z,98169.09
2022-11-22T02:48:11.074Z,98156.44
2022-11-22T02:50:38.628Z,98147.25
2022-11-22T02:53:06.780Z,98155.69
2022-11-22T02:55:34.087Z,98150.94
2022-11-22T02:58:01.247Z,98153.16
2022-11-22T03:00:28.535Z,98155.63
2022-11-22T03:02:55.428Z,98140.50
2022-11-22T03:05:25.222Z,98141.00
2022-11-22T03:07:52.146Z,98146.19
2022-11-22T03:10:21.988Z,98135.00
2022-11-22T03:12:49.030Z,98126.78
2022-11-22T03:15:16.430Z,98125.00
2022-11-22T03:17:43.492Z,98122.28
2022-11-22T03:20:10.848Z,98116.53
2022-11-22T03:22:37.993Z,98123.69
2022-11-22T03:25:05.918Z,98118.16
2022-11-22T03:27:35.106Z,98122.06
2022-11-22T03:30:02.357Z,98112.53
2022-11-22T03:32:29.359Z,98102.25
2022-11-22T03:34:56.614Z,98099.50
2022-11-22T03:37:23.591Z,98104.69
2022-11-22T03:39:50.948Z,98106.63
2022-11-22T03:42:21.450Z,98110.34
2022-11-22T03:44:49.845Z,98110.06
2022-11-22T03:47:16.837Z,98110.75
2022-11-22T03:49:44.086Z,98104.03
2022-11-22T03:52:13.919Z,98101.78
2022-11-22T03:54:44.097Z,98094.25
2022-11-22T03:57:10.992Z,98095.97
2022-11-22T03:59:38.224Z,98094.94
2022-11-22T04:02:05.386Z,98078.97
2022-11-22T04:04:34.072Z,98086.94
2022-11-22T04:07:01.126Z,98101.34
2022-11-22T04:09:31.242Z,98087.13
2022-11-22T04:11:58.462Z,98093.34
2022-11-22T04:14:44.594Z,98084.09
2022-11-22T04:17:14.820Z,98086.84
2022-11-22T04:20:02.031Z,98088.06
2022-11-22T04:22:28.980Z,98095.75
2022-11-22T04:25:14.664Z,98089.47
2022-11-22T04:27:41.620Z,98090.66
2022-11-22T04:30:09.186Z,98086.69
2022-11-22T04:32:48.240Z,98074.00
2022-11-22T04:35:17.011Z,98077.44
2022-11-22T04:37:51.448Z,98069.97
2022-11-22T04:40:21.354Z,98068.72
2022-11-22T04:43:06.431Z,98069.88
2022-11-22T04:45:35.932Z,98071.09
2022-11-22T04:48:03.040Z,98080.78
2022-11-22T04:50:50.667Z,98069.78
2022-11-22T04:53:18.928Z,98072.00
2022-11-22T04:55:47.437Z,98070.94
2022-11-22T04:58:14.718Z,98081.63
2022-11-22T05:00:44.767Z,98084.31
2022-11-22T05:03:11.860Z,98074.59
2022-11-22T05:05:41.125Z,98075.78
2022-11-22T05:08:08.637Z,98074.78
2022-11-22T05:10:57.524Z,98076.25
2022-11-22T05:13:27.304Z,98067.50
2022-11-22T05:15:55.466Z,98072.97
2022-11-22T05:18:23.463Z,98073.97
2022-11-22T05:20:51.363Z,98071.66
2022-11-22T05:23:38.273Z,98075.59
2022-11-22T05:26:06.446Z,98076.31
2022-11-22T05:28:35.486Z,98064.84
2022-11-22T05:31:10.375Z,98071.88
2022-11-22T05:33:42.370Z,98065.66
2022-11-22T05:36:12.915Z,98070.53
2022-11-22T05:38:40.067Z,98072.03
2022-11-22T05:41:10.230Z,98071.00
2022-11-22T05:43:37.839Z,98075.22
2022-11-22T05:46:09.200Z,98077.69
2022-11-22T05:48:37.782Z,98087.88
2022-11-22T05:51:10.680Z,98081.38
2022-11-22T05:53:38.832Z,98094.25
2022-11-22T05:56:08.514Z,98082.88
2022-11-22T05:58:38.348Z,98102.78
2022-11-22T06:01:08.689Z,98099.75
2022-11-22T06:03:36.899Z,98094.25
2022-11-22T06:06:05.873Z,98090.78
2022-11-22T06:08:35.910Z,98084.78
2022-11-22T06:11:32.411Z,98095.97
2022-11-22T06:14:03.358Z,98087.00
2022-11-22T06:16:30.778Z,98091.75
2022-11-22T06:18:57.814Z,98093.25
2022-11-22T06:21:26.571Z,98101.88
2022-11-22T06:23:55.222Z,98103.16
2022-11-22T06:26:24.163Z,98101.66
2022-11-22T06:28:51.824Z,98109.38
2022-11-22T06:31:25.187Z,98107.31
2022-11-22T06:33:57.703Z,98096.94
2022-11-22T06:36:35.286Z,98110.88
2022-11-22T06:39:03.822Z,98116.88
2022-11-22T06:41:36.330Z,98125.75
2022-11-22T06:44:09.862Z,98116.88
2022-11-22T06:46:37.594Z,98113.59
2022-11-22T06:49:04.648Z,98107.59
2022-11-22T06:51:32.694Z,98109.81
2022-11-22T06:54:00.104Z,98112.25
2022-11-22T06:56:29.849Z,98110.25
2022-11-22T06:58:57.317Z,98113.53
2022-11-22T07:01:27.554Z,98114.72
2022-11-22T07:03:59.275Z,98117.44
2022-11-22T07:06:29.265Z,98119.16
2022-11-22T07:08:56.671Z,98118.72
2022-11-22T07:11:29.057Z,98122.13
2022-11-22T07:14:05.014Z,98118.19
2022-11-22T07:16:35.937Z,98116.94
2022-11-22T07:19:02.996Z,98118.41
2022-11-22T07:21:32.735Z,98127.47
2022-11-22T07:23:59.887Z,98139.91
2022-11-22T07:26:27.934Z,98134.13
2022-11-22T07:28:54.978Z,98142.88
2022-11-22T07:31:22.559Z,98140.50
2022-11-22T07:33:49.684Z,98144.34
2022-11-22T07:36:19.525Z,98135.06
2022-11-22T07:38:47.934Z,98150.84
2022-11-22T07:41:16.635Z,98145.50
2022-11-22T07:43:43.941Z,98149.47
2022-11-22T07:46:23.514Z,98152.56
2022-11-22T07:48:51.066Z,98153.88
2022-11-22T07:51:18.899Z,98160.22
2022-11-22T07:53:46.214Z,98158.75
2022-11-22T07:56:14.039Z,98163.19
2022-11-22T07:58:41.223Z,98173.25
2022-11-22T08:01:10.632Z,98155.59
2022-11-22T08:03:38.428Z,98169.03
2022-11-22T08:06:09.041Z,98178.81
2022-11-22T08:08:36.976Z,98169.34
2022-11-22T08:11:06.050Z,98173.16
2022-11-22T08:13:34.156Z,98176.41
2022-11-22T08:16:05.633Z,98187.09
2022-11-22T08:18:35.127Z,98193.81
2022-11-22T08:21:08.220Z,98185.31
2022-11-22T08:23:35.709Z,98190.78
2022-11-22T08:26:03.959Z,98197.47
2022-11-22T08:28:31.121Z,98206.16
2022-11-22T08:31:06.998Z,98198.97
2022-11-22T08:33:34.427Z,98204.44
2022-11-22T08:36:01.798Z,98218.13
2022-11-22T08:38:28.875Z,98218.06
2022-11-22T08:40:56.724Z,98214.59
2022-11-22T08:43:26.318Z,98216.03
2022-11-22T08:45:57.029Z,98221.03
2022-11-22T08:48:25.994Z,98227.00
2022-11-22T08:50:55.342Z,98222.03
2022-11-22T08:53:25.146Z,98232.19
2022-11-22T08:55:53.235Z,98231.16
2022-11-22T08:58:23.118Z,98234.41
2022-11-22T09:00:50.544Z,98243.09
2022-11-22T09:03:19.978Z,98253.78
2022-11-22T09:08:37.764Z,98252.50
2022-11-22T09:11:09.203Z,98249.50
2022-11-22T09:13:36.519Z,98248.41
2022-11-22T09:16:09.539Z,98246.66
2022-11-22T09:18:37.266Z,98246.88
2022-11-22T09:21:08.119Z,98249.06
2022-11-22T09:23:36.046Z,98246.03
2022-11-22T09:26:09.195Z,98253.00
2022-11-22T09:28:38.962Z,98252.47
2022-11-22T09:31:08.255Z,98257.53
2022-11-22T09:33:37.777Z,98260.97
2022-11-22T09:36:11.767Z,98253.50
2022-11-22T09:38:38.914Z,98258.25
2022-11-22T09:41:36.966Z,98248.50
2022-11-22T09:44:28.026Z,98253.91
2022-11-22T09:47:08.076Z,98249.69
2022-11-22T09:49:37.964Z,98251.38
2022-11-22T09:52:15.164Z,98253.56
2022-11-22T09:55:10.611Z,98252.47
2022-11-22T09:57:43.837Z,98244.53
2022-11-22T10:00:31.395Z,98245.75
2022-11-22T10:03:43.862Z,98240.25
2022-11-22T10:06:34.786Z,98237.16
2022-11-22T10:09:11.255Z,98225.75
2022-11-22T10:12:10.126Z,98230.19
2022-11-22T10:14:53.880Z,98226.34
2022-11-22T10:17:36.940Z,98229.00
2022-11-22T10:20:24.333Z,98229.75
2022-11-22T10:22:51.903Z,98231.00
2022-11-22T10:25:35.039Z,98233.16
2022-11-22T10:28:16.364Z,98235.19
2022-11-22T10:30:55.130Z,98236.88
2022-11-22T10:33:50.522Z,98243.94
2022-11-22T10:36:24.327Z,98235.47
2022-11-22T10:39:03.679Z,98237.47
2022-11-22T10:41:46.042Z,98248.91
2022-11-22T10:44:39.254Z,98244.06
2022-11-22T10:47:09.951Z,98249.34
2022-11-22T10:49:51.976Z,98236.06
2022-11-22T10:52:40.900Z,98234.81
2022-11-22T10:55:29.405Z,98240.28
2022-11-22T10:58:10.724Z,98228.81
2022-11-22T11:00:43.956Z,98230.88
2022-11-22T11:03:23.567Z,98234.81
2022-11-22T11:06:43.593Z,98228.06
2022-11-22T11:10:02.844Z,98231.75
2022-11-22T11:11:56.983Z,98232.81
2022-11-22T11:14:37.115Z,98237.47
2022-11-22T11:17:07.205Z,98236.66
2022-11-22T11:19:41.874Z,98238.47
2022-11-22T11:22:08.991Z,98239.41
2022-11-22T11:24:40.094Z,98238.09
2022-11-22T11:27:09.353Z,98242.25
2022-11-22T11:29:46.926Z,98233.13
2022-11-22T11:32:16.483Z,98229.34
2022-11-22T11:34:53.522Z,98229.25
2022-11-22T11:37:27.551Z,98226.53
2022-11-22T11:39:57.880Z,98221.75
2022-11-22T11:42:35.676Z,98224.66
2022-11-22T11:45:24.879Z,98226.03
2022-11-22T11:47:51.826Z,98217.88
2022-11-22T11:50:24.994Z,98226.03
2022-11-22T11:53:04.914Z,98224.03
2022-11-22T11:55:35.547Z,98224.03
2022-11-22T11:58:19.600Z,98222.78
2022-11-22T12:00:47.417Z,98215.97
2022-11-22T12:03:19.157Z,98214.91
2022-11-22T12:05:46.642Z,98214.59
2022-11-22T12:08:31.752Z,98199.28
2022-11-22T12:11:09.130Z,98199.22
2022-11-22T12:13:51.760Z,98197.66
2022-11-22T12:16:32.105Z,98203.16
2022-11-22T12:19:33.105Z,98209.66
2022-11-22T12:22:42.613Z,98210.78
2022-11-22T12:25:34.754Z,98205.06
2022-11-22T12:28:27.472Z,98208.97
2022-11-22T12:31:13.596Z,98210.25
2022-11-22T12:33:47.663Z,98210.03
2022-11-22T12:36:40.302Z,98215.53
2022-11-22T12:39:14.612Z,98217.22
2022-11-22T12:41:43.199Z,98216.16
2022-11-22T12:44:16.821Z,98222.63
2022-11-22T12:46:52.651Z,98223.06
2022-11-22T12:49:39.987Z,98217.56
2022-11-22T12:52:33.691Z,98231.41
2022-11-22T12:55:05.806Z,98224.44
2022-11-22T12:57:42.997Z,98225.31
2022-11-22T13:00:16.324Z,98232.91
2022-11-22T13:03:03.503Z,98235.63
2022-11-22T13:05:37.024Z,98240.88
2022-11-22T13:08:31.289Z,98232.03
2022-11-22T13:11:06.452Z,98239.66
2022-11-22T13:13:47.483Z,98239.88
2022-11-22T13:16:15.053Z,98228.66
2022-11-22T13:18:49.882Z,98229.94
2022-11-22T13:21:25.941Z,98239.97
2022-11-22T13:24:09.578Z,98232.66
2022-11-22T13:27:04.499Z,98238.81
2022-11-22T13:29:34.718Z,98240.81
2022-11-22T13:32:05.097Z,98246.53
2022-11-22T13:34:34.253Z,98242.31
2022-11-22T13:37:18.563Z,98239.03
2022-11-22T13:39:49.717Z,98246.75
2022-11-22T13:42:28.468Z,98246.28
2022-11-22T13:44:55.342Z,98250.00
2022-11-22T13:47:22.552Z,98244.91
2022-11-22T13:49:54.086Z,98237.94
2022-11-22T13:52:21.289Z,98239.28
2022-11-22T13:54:48.281Z,98238.75
2022-11-22T13:57:35.840Z,98234.84
2022-11-22T14:00:14.850Z,98234.09
2022-11-22T14:02:45.351Z,98241.31
2022-11-22T14:05:40.946Z,98235.13
2022-11-22T14:08:37.325Z,98232.78
2022-11-22T14:11:53.829Z,98240.72
2022-11-22T14:14:57.025Z,98241.16
2022-11-22T14:17:42.706Z,98244.66
2022-11-22T14:20:56.417Z,98256.06
2022-11-22T14:23:33.648Z,98256.88
2022-11-22T14:26:28.736Z,98247.69
2022-11-22T14:29:27.785Z,98256.66
2022-11-22T14:32:03.994Z,98259.94
2022-11-22T14:34:31.530Z,98267.41
2022-11-22T14:37:34.449Z,98263.97
2022-11-22T14:40:07.823Z,98263.72
2022-11-22T14:42:38.212Z,98275.53
2022-11-22T14:45:11.246Z,98277.53
2022-11-22T14:47:53.875Z,98285.31
2022-11-22T14:50:40.466Z,98279.84
2022-11-22T14:53:39.083Z,98274.16
2022-11-22T14:56:26.890Z,98275.38
2022-11-22T14:59:28.321Z,98276.44
2022-11-22T15:02:34.702Z,98280.44
2022-11-22T15:09:14.915Z,98274.00
2022-11-22T15:09:19.183Z,98276.50
2022-11-22T15:11:27.179Z,98279.09
2022-11-22T15:14:26.528Z,98288.59
2022-11-22T15:59:43.233Z,98321.28
2022-11-22T16:02:25.412Z,98324.31
2022-11-22T16:06:07.874Z,98321.41
2022-11-22T16:07:49.238Z,98325.63
2022-11-22T16:10:23.113Z,98318.22
2022-11-22T16:12:51.662Z,98313.00
2022-11-22T16:15:37.205Z,98314.22
2022-11-22T16:18:13.605Z,98312.56
2022-11-22T16:21:04.356Z,98306.56
2022-11-22T16:23:35.093Z,98303.59
2022-11-22T16:26:17.788Z,98305.88
2022-11-22T16:28:46.725Z,98313.66
2022-11-22T16:31:24.862Z,98322.19
2022-11-22T16:33:54.748Z,98323.69
2022-11-22T16:36:24.397Z,98337.13
2022-11-22T16:38:52.318Z,98339.13
2022-11-22T16:41:26.218Z,98337.84
2022-11-22T16:44:02.118Z,98341.81
2022-11-22T16:46:31.490Z,98337.59
2022-11-22T16:49:02.206Z,98339.06
2022-11-22T16:51:30.852Z,98343.13
2022-11-22T16:54:08.648Z,98340.69
2022-11-22T16:56:37.588Z,98340.44
2022-11-22T16:59:12.705Z,98336.28
2022-11-22T17:01:44.703Z,98330.03
2022-11-22T17:04:26.690Z,98335.38
2022-11-22T17:06:58.040Z,98333.19
2022-11-22T17:09:26.233Z,98337.44
2022-11-22T17:11:53.684Z,98338.22
2022-11-22T17:14:22.638Z,98341.78
2022-11-22T17:16:50.713Z,98339.31
2022-11-22T17:19:45.490Z,98349.28
2022-11-22T17:22:07.765Z,98342.84
2022-11-22T17:24:36.439Z,98348.56
2022-11-22T17:27:04.334Z,98348.56
2022-11-22T17:32:21.899Z,98358.75
2022-11-22T17:34:53.150Z,98361.75
2022-11-22T17:37:25.653Z,98371.44
2022-11-22T17:39:55.265Z,98370.44
2022-11-22T17:42:27.605Z,98355.72
2022-11-22T17:44:55.980Z,98360.16
2022-11-22T17:47:24.090Z,98363.38
2022-11-22T17:49:55.414Z,98357.91
2022-11-22T17:52:22.946Z,98368.34
2022-11-22T17:54:51.234Z,98363.81
2022-11-22T17:57:21.111Z,98358.56
2022-11-22T17:59:49.320Z,98364.81
2022-11-22T18:02:17.402Z,98360.81
2022-11-22T18:04:45.600Z,98371.50
2022-11-22T18:07:16.082Z,98372.25
2022-11-22T18:09:44.693Z,98377.22
2022-11-22T18:12:12.330Z,98371.72
2022-11-22T18:14:40.550Z,98368.19
2022-11-22T18:17:08.591Z,98371.69
2022-11-22T18:19:40.126Z,98371.69
2022-11-22T18:22:09.547Z,98374.66
2022-11-22T18:24:37.910Z,98379.38
2022-11-22T18:27:05.816Z,98376.66
2022-11-22T18:29:42.849Z,98379.63
2022-11-22T18:32:12.342Z,98373.63
2022-11-22T18:34:42.157Z,98371.63
2022-11-22T18:37:10.672Z,98376.38
2022-11-22T18:39:41.821Z,98381.13
2022-11-22T18:42:16.418Z,98381.63
2022-11-22T18:44:48.522Z,98385.34
2022-11-22T18:47:17.595Z,98380.63
2022-11-22T18:49:46.792Z,98377.63
2022-11-22T18:52:18.152Z,98380.09
2022-11-22T18:54:47.631Z,98381.28
2022-11-22T18:57:15.690Z,98377.06
2022-11-22T18:59:44.705Z,98379.59
2022-11-22T19:02:12.867Z,98379.34
2022-11-22T19:04:41.732Z,98377.88
2022-11-22T19:07:09.892Z,98380.38
2022-11-22T19:09:44.503Z,98376.88
2022-11-22T19:12:13.487Z,98382.38
2022-11-22T19:14:42.483Z,98383.13
2022-11-22T19:17:10.948Z,98387.84
2022-11-22T19:19:41.853Z,98393.84
2022-11-22T19:22:10.244Z,98391.88
2022-11-22T19:24:47.370Z,98391.88
2022-11-22T19:27:20.563Z,98390.59
2022-11-22T19:29:51.779Z,98392.59
2022-11-22T19:32:20.133Z,98396.06
2022-11-22T19:34:48.724Z,98396.84
2022-11-22T19:37:17.811Z,98394.09
2022-11-22T19:39:46.873Z,98408.28
2022-11-22T19:42:18.013Z,98397.59
2022-11-22T19:44:46.355Z,98400.31
2022-11-22T19:47:14.564Z,98398.06
2022-11-22T19:49:42.692Z,98396.59
2022-11-22T19:52:10.813Z,98392.59
2022-11-22T19:54:39.316Z,98396.56
2022-11-22T19:57:07.471Z,98401.56
2022-11-22T19:59:40.065Z,98398.31
2022-11-22T20:02:09.621Z,98390.84
2022-11-22T20:04:37.998Z,98391.06
2022-11-22T20:07:06.486Z,98383.13
2022-11-22T20:09:37.891Z,98385.34
2022-11-22T20:12:07.270Z,98385.88
2022-11-22T20:14:36.135Z,98382.66
2022-11-22T20:17:03.762Z,98378.66
2022-11-22T20:19:34.731Z,98383.63
2022-11-22T20:22:02.895Z,98379.09
2022-11-22T20:24:33.630Z,98381.63
2022-11-22T20:27:04.005Z,98376.88
2022-11-22T20:29:32.348Z,98381.63
2022-11-22T20:32:02.448Z,98377.34
2022-11-22T20:34:33.862Z,98381.06
2022-11-22T20:37:04.448Z,98375.56
2022-11-22T20:39:35.936Z,98383.06
2022-11-22T20:42:33.092Z,98374.63
2022-11-22T20:44:56.678Z,98371.63
2022-11-22T20:47:24.764Z,98371.41
2022-11-22T20:49:53.989Z,98375.41
2022-11-22T20:52:22.479Z,98374.94
2022-11-22T20:54:52.847Z,98370.94
2022-11-22T20:57:21.794Z,98366.72
2022-11-22T20:59:50.240Z,98369.69
2022-11-22T21:02:18.107Z,98373.75
2022-11-22T21:04:45.871Z,98362.03
2022-11-22T21:07:13.691Z,98369.22
2022-11-22T21:09:41.867Z,98365.53
2022-11-22T21:12:08.972Z,98374.47
2022-11-22T21:14:36.232Z,98366.25
2022-11-22T21:17:22.785Z,98367.50
2022-11-22T21:19:51.729Z,98376.47
2022-11-22T21:22:18.943Z,98378.47
2022-11-22T21:24:47.080Z,98375.25
2022-11-22T21:27:14.810Z,98381.03
2022-11-22T21:29:42.305Z,98384.00
2022-11-22T21:32:09.917Z,98381.03
2022-11-22T21:34:37.638Z,98377.81
2022-11-22T21:37:04.996Z,98385.53
2022-11-22T21:39:32.003Z,98382.81
2022-11-22T21:41:59.285Z,98387.53
2022-11-22T21:44:26.294Z,98388.03
2022-11-22T21:46:53.493Z,98381.28
2022-11-22T21:49:20.466Z,98378.13
2022-11-22T21:51:48.533Z,98365.13
2022-11-22T21:54:15.494Z,98372.63
2022-11-22T21:56:42.859Z,98371.63
2022-11-22T21:59:11.406Z,98373.19
2022-11-22T22:01:39.103Z,98373.91
2022-11-22T22:04:06.058Z,98382.13
2022-11-22T22:06:33.834Z,98384.91
2022-11-22T22:09:00.844Z,98386.66
2022-11-22T22:11:28.611Z,98388.91
2022-11-22T22:13:55.740Z,98383.94
2022-11-22T22:16:24.068Z,98386.16
2022-11-22T22:18:51.162Z,98390.38
2022-11-22T22:21:19.585Z,98386.16
2022-11-22T22:23:47.151Z,98387.44
2022-11-22T22:26:17.953Z,98385.94
2022-11-22T22:28:46.044Z,98386.44
2022-11-22T22:31:22.789Z,98394.91
2022-11-22T22:33:58.637Z,98398.88
2022-11-22T22:36:26.888Z,98403.13
2022-11-22T22:38:54.983Z,98402.38
2022-11-22T22:41:22.464Z,98399.91
2022-11-22T22:43:49.596Z,98398.16
2022-11-22T22:46:24.888Z,98406.38
2022-11-22T22:48:54.851Z,98408.88
2022-11-22T22:51:33.236Z,98402.13
2022-11-22T22:54:01.092Z,98409.63
2022-11-22T22:56:30.174Z,98406.88
2022-11-22T22:59:01.108Z,98410.09
2022-11-22T23:01:30.553Z,98410.38
2022-11-22T23:04:01.711Z,98411.69
2022-11-22T23:06:31.722Z,98409.94
2022-11-22T23:08:59.636Z,98413.91
2022-11-22T23:11:50.282Z,98413.19
2022-11-22T23:14:23.903Z,98412.66
2022-11-22T23:16:57.119Z,98422.63
2022-11-22T23:19:25.957Z,98424.13
2022-11-22T23:21:53.641Z,98424.88
2022-11-22T23:24:23.114Z,98420.88
2022-11-22T23:26:50.412Z,98418.88
2022-11-22T23:29:17.426Z,98418.88
2022-11-22T23:31:44.711Z,98416.13
2022-11-22T23:34:12.242Z,98412.66
2022-11-22T23:36:41.167Z,98412.44
2022-11-22T23:39:09.130Z,98414.94
2022-11-22T23:41:36.454Z,98417.91
2022-11-22T23:44:03.865Z,98413.19
2022-11-22T23:46:31.370Z,98406.72
2022-11-22T23:49:01.938Z,98411.69
2022-11-22T23:51:30.874Z,98409.44
2022-11-22T23:54:02.430Z,98405.75
2022-11-22T23:56:31.492Z,98399.50
2022-11-22T23:58:59.782Z,98397.75
